sensor_id;sensor_type;location;lat;lon;timestamp;pressure;altitude;pressure_sealevel;temperature;humidity
33697;BME280;20031;43.416;23.232;2022-07-04T00:00:53;99991.28;;;24.05;84.47
33697;BME280;20031;43.416;23.232;2022-07-04T00:03:27;99988.38;;;24.06;84.42
33697;BME280;20031;43.416;23.232;2022-07-04T00:06:02;99994.03;;;24.10;83.06
33697;BME280;20031;43.416;23.232;2022-07-04T00:08:40;99989.00;;;24.13;81.91
33697;BME280;20031;43.416;23.232;2022-07-04T00:11:12;99999.16;;;24.16;80.99
33697;BME280;20031;43.416;23.232;2022-07-04T00:13:44;99997.88;;;24.18;80.96
33697;BME280;20031;43.416;23.232;2022-07-04T00:16:16;99985.94;;;24.21;80.54
33697;BME280;20031;43.416;23.232;2022-07-04T00:18:46;99992.59;;;24.23;80.76
33697;BME280;20031;43.416;23.232;2022-07-04T00:21:13;99988.34;;;24.22;80.69
33697;BME280;20031;43.416;23.232;2022-07-04T00:23:38;99991.25;;;24.21;80.21
33697;BME280;20031;43.416;23.232;2022-07-04T00:26:03;99995.22;;;24.18;80.23
33697;BME280;20031;43.416;23.232;2022-07-04T00:28:29;99994.09;;;24.14;79.85
33697;BME280;20031;43.416;23.232;2022-07-04T00:30:54;99995.38;;;24.12;80.32
33697;BME280;20031;43.416;23.232;2022-07-04T00:33:20;99996.69;;;24.10;80.60
33697;BME280;20031;43.416;23.232;2022-07-04T00:35:45;99999.03;;;24.06;80.76
33697;BME280;20031;43.416;23.232;2022-07-04T00:38:11;99998.25;;;24.06;81.21
33697;BME280;20031;43.416;23.232;2022-07-04T00:40:37;99995.56;;;24.06;80.94
33697;BME280;20031;43.416;23.232;2022-07-04T00:43:04;99991.28;;;24.05;81.34
33697;BME280;20031;43.416;23.232;2022-07-04T00:45:29;99992.13;;;24.05;81.12
33697;BME280;20031;43.416;23.232;2022-07-04T00:47:55;99992.13;;;24.05;81.02
33697;BME280;20031;43.416;23.232;2022-07-04T00:50:20;100001.94;;;24.05;80.65
33697;BME280;20031;43.416;23.232;2022-07-04T00:52:46;99998.91;;;23.96;80.30
33697;BME280;20031;43.416;23.232;2022-07-04T00:55:12;99996.59;;;23.83;80.31
33697;BME280;20031;43.416;23.232;2022-07-04T00:57:39;99997.41;;;23.67;80.70
33697;BME280;20031;43.416;23.232;2022-07-04T01:00:06;100002.31;;;23.59;81.54
33697;BME280;20031;43.416;23.232;2022-07-04T01:02:31;99997.97;;;23.53;81.92
33697;BME280;20031;43.416;23.232;2022-07-04T01:04:57;100002.34;;;23.43;82.18
33697;BME280;20031;43.416;23.232;2022-07-04T01:07:22;100009.31;;;23.32;82.36
33697;BME280;20031;43.416;23.232;2022-07-04T01:09:48;100004.88;;;23.21;82.99
33697;BME280;20031;43.416;23.232;2022-07-04T01:12:27;100008.00;;;23.18;83.75
33697;BME280;20031;43.416;23.232;2022-07-04T01:14:53;100004.88;;;23.21;83.75
33697;BME280;20031;43.416;23.232;2022-07-04T01:17:19;100006.25;;;23.24;83.72
33697;BME280;20031;43.416;23.232;2022-07-04T01:19:44;100005.03;;;23.31;84.01
33697;BME280;20031;43.416;23.232;2022-07-04T01:22:10;100000.56;;;23.32;84.09
33697;BME280;20031;43.416;23.232;2022-07-04T01:24:35;100000.88;;;23.35;84.70
33697;BME280;20031;43.416;23.232;2022-07-04T01:27:01;100002.47;;;23.36;84.60
33697;BME280;20031;43.416;23.232;2022-07-04T01:29:26;100000.38;;;23.38;84.57
33697;BME280;20031;43.416;23.232;2022-07-04T01:31:52;99999.09;;;23.41;84.69
33697;BME280;20031;43.416;23.232;2022-07-04T01:34:19;99999.88;;;23.41;85.15
33697;BME280;20031;43.416;23.232;2022-07-04T01:36:44;100005.22;;;23.41;84.87
33697;BME280;20031;43.416;23.232;2022-07-04T01:39:10;100004.41;;;23.41;85.06
33697;BME280;20031;43.416;23.232;2022-07-04T01:41:35;99998.53;;;23.39;84.82
33697;BME280;20031;43.416;23.232;2022-07-04T01:44:01;100001.34;;;23.32;85.02
33697;BME280;20031;43.416;23.232;2022-07-04T01:46:27;100006.66;;;23.32;85.56
33697;BME280;20031;43.416;23.232;2022-07-04T01:48:52;100011.50;;;23.35;85.45
33697;BME280;20031;43.416;23.232;2022-07-04T01:51:18;100006.19;;;23.35;85.22
33697;BME280;20031;43.416;23.232;2022-07-04T01:53:43;100005.38;;;23.35;85.61
33697;BME280;20031;43.416;23.232;2022-07-04T01:56:09;100012.31;;;23.36;85.80
33697;BME280;20031;43.416;23.232;2022-07-04T01:58:34;100006.75;;;23.37;85.41
33697;BME280;20031;43.416;23.232;2022-07-04T02:01:00;100007.31;;;23.39;85.80
33697;BME280;20031;43.416;23.232;2022-07-04T02:03:44;100012.63;;;23.39;85.53
33697;BME280;20031;43.416;23.232;2022-07-04T02:06:11;100007.31;;;23.39;85.51
33697;BME280;20031;43.416;23.232;2022-07-04T02:08:37;100015.53;;;23.38;85.31
33697;BME280;20031;43.416;23.232;2022-07-04T02:11:21;100011.84;;;23.39;85.77
33697;BME280;20031;43.416;23.232;2022-07-04T02:13:46;100016.56;;;23.37;85.29
33697;BME280;20031;43.416;23.232;2022-07-04T02:16:12;100015.78;;;23.36;85.26
33697;BME280;20031;43.416;23.232;2022-07-04T02:18:37;100013.59;;;23.33;85.40
33697;BME280;20031;43.416;23.232;2022-07-04T02:21:03;100014.09;;;23.30;85.34
33697;BME280;20031;43.416;23.232;2022-07-04T02:23:29;100023.34;;;23.28;85.13
33697;BME280;20031;43.416;23.232;2022-07-04T02:25:54;100015.38;;;23.28;85.27
33697;BME280;20031;43.416;23.232;2022-07-04T02:28:20;100026.25;;;23.26;85.10
33697;BME280;20031;43.416;23.232;2022-07-04T02:30:45;100021.47;;;23.28;84.88
33697;BME280;20031;43.416;23.232;2022-07-04T02:33:11;100020.69;;;23.28;85.00
33697;BME280;20031;43.416;23.232;2022-07-04T02:35:36;100021.16;;;23.25;84.32
33697;BME280;20031;43.416;23.232;2022-07-04T02:38:02;100020.38;;;23.24;84.76
33697;BME280;20031;43.416;23.232;2022-07-04T02:40:27;100020.03;;;23.21;84.26
33697;BME280;20031;43.416;23.232;2022-07-04T02:42:52;100025.81;;;23.18;84.15
33697;BME280;20031;43.416;23.232;2022-07-04T02:45:18;100022.84;;;23.14;84.77
33697;BME280;20031;43.416;23.232;2022-07-04T02:47:43;100036.16;;;23.14;84.17
33697;BME280;20031;43.416;23.232;2022-07-04T02:50:09;100033.50;;;23.14;84.81
33697;BME280;20031;43.416;23.232;2022-07-04T02:52:34;100031.94;;;23.18;84.56
33697;BME280;20031;43.416;23.232;2022-07-04T02:55:00;100032.28;;;23.22;84.76
33697;BME280;20031;43.416;23.232;2022-07-04T02:57:26;100033.06;;;23.22;84.22
33697;BME280;20031;43.416;23.232;2022-07-04T02:59:52;100031.81;;;23.25;83.99
33697;BME280;20031;43.416;23.232;2022-07-04T03:02:18;100037.44;;;23.28;84.31
33697;BME280;20031;43.416;23.232;2022-07-04T03:04:43;100034.88;;;23.33;83.97
33697;BME280;20031;43.416;23.232;2022-07-04T03:07:09;100033.59;;;23.36;84.01
33697;BME280;20031;43.416;23.232;2022-07-04T03:09:35;100035.53;;;23.40;83.94
33697;BME280;20031;43.416;23.232;2022-07-04T03:12:00;100038.72;;;23.42;83.67
33697;BME280;20031;43.416;23.232;2022-07-04T03:14:26;100036.91;;;23.43;83.60
33697;BME280;20031;43.416;23.232;2022-07-04T03:16:51;100040.84;;;23.40;83.51
33697;BME280;20031;43.416;23.232;2022-07-04T03:19:16;100043.75;;;23.39;82.45
33697;BME280;20031;43.416;23.232;2022-07-04T03:21:43;100045.25;;;23.35;82.35
33697;BME280;20031;43.416;23.232;2022-07-04T03:24:08;100050.34;;;23.36;81.93
33697;BME280;20031;43.416;23.232;2022-07-04T03:26:34;100048.22;;;23.38;81.64
33697;BME280;20031;43.416;23.232;2022-07-04T03:29:01;100045.34;;;23.40;81.08
33697;BME280;20031;43.416;23.232;2022-07-04T03:31:28;100047.84;;;23.46;81.00
33697;BME280;20031;43.416;23.232;2022-07-04T03:33:54;100051.72;;;23.55;81.00
33697;BME280;20031;43.416;23.232;2022-07-04T03:36:20;100058.47;;;23.62;80.78
33697;BME280;20031;43.416;23.232;2022-07-04T03:38:46;100055.47;;;23.70;80.93
33697;BME280;20031;43.416;23.232;2022-07-04T03:41:11;100049.25;;;23.81;80.32
33697;BME280;20031;43.416;23.232;2022-07-04T03:43:37;100056.25;;;23.87;80.06
33697;BME280;20031;43.416;23.232;2022-07-04T03:46:03;100058.97;;;23.92;80.03
33697;BME280;20031;43.416;23.232;2022-07-04T03:48:28;100060.34;;;23.95;79.33
33697;BME280;20031;43.416;23.232;2022-07-04T03:50:54;100066.81;;;23.99;79.27
33697;BME280;20031;43.416;23.232;2022-07-04T03:53:20;100062.13;;;24.06;79.54
33697;BME280;20031;43.416;23.232;2022-07-04T03:55:46;100062.19;;;24.11;79.47
33697;BME280;20031;43.416;23.232;2022-07-04T03:58:11;100068.38;;;24.16;79.04
33697;BME280;20031;43.416;23.232;2022-07-04T04:00:37;100066.69;;;24.26;78.57
33697;BME280;20031;43.416;23.232;2022-07-04T04:03:02;100066.94;;;24.25;77.83
33697;BME280;20031;43.416;23.232;2022-07-04T04:05:48;100071.69;;;24.23;78.33
33697;BME280;20031;43.416;23.232;2022-07-04T04:08:13;100072.47;;;24.23;78.65
33697;BME280;20031;43.416;23.232;2022-07-04T04:10:39;100071.50;;;24.29;78.81
33697;BME280;20031;43.416;23.232;2022-07-04T04:13:04;100077.25;;;24.38;78.87
33697;BME280;20031;43.416;23.232;2022-07-04T04:15:29;100077.31;;;24.43;78.61
33697;BME280;20031;43.416;23.232;2022-07-04T04:17:55;100070.94;;;24.44;78.47
33697;BME280;20031;43.416;23.232;2022-07-04T04:20:20;100076.91;;;24.51;78.15
33697;BME280;20031;43.416;23.232;2022-07-04T04:22:46;100075.94;;;24.62;78.19
33697;BME280;20031;43.416;23.232;2022-07-04T04:25:11;100074.72;;;24.69;77.70
33697;BME280;20031;43.416;23.232;2022-07-04T04:27:37;100076.16;;;24.76;77.85
33697;BME280;20031;43.416;23.232;2022-07-04T04:30:03;100075.94;;;24.83;77.92
33697;BME280;20031;43.416;23.232;2022-07-04T04:32:29;100077.91;;;24.92;78.33
33697;BME280;20031;43.416;23.232;2022-07-04T04:34:54;100081.84;;;25.06;77.70
33697;BME280;20031;43.416;23.232;2022-07-04T04:37:20;100079.31;;;25.21;77.75
33697;BME280;20031;43.416;23.232;2022-07-04T04:39:45;100076.03;;;25.35;76.58
33697;BME280;20031;43.416;23.232;2022-07-04T04:42:10;100077.19;;;25.49;76.50
33697;BME280;20031;43.416;23.232;2022-07-04T04:44:36;100080.50;;;25.61;75.13
33697;BME280;20031;43.416;23.232;2022-07-04T04:47:02;100085.19;;;25.75;74.84
33697;BME280;20031;43.416;23.232;2022-07-04T04:49:27;100084.84;;;25.67;72.64
33697;BME280;20031;43.416;23.232;2022-07-04T04:51:53;100090.66;;;25.64;71.77
33697;BME280;20031;43.416;23.232;2022-07-04T04:54:18;100087.81;;;25.70;71.69
33697;BME280;20031;43.416;23.232;2022-07-04T04:56:43;100083.28;;;25.71;70.84
33697;BME280;20031;43.416;23.232;2022-07-04T04:59:09;100094.94;;;25.65;70.17
33697;BME280;20031;43.416;23.232;2022-07-04T05:01:35;100088.25;;;25.63;70.04
33697;BME280;20031;43.416;23.232;2022-07-04T05:04:01;100093.78;;;25.56;70.90
33697;BME280;20031;43.416;23.232;2022-07-04T05:06:26;100092.19;;;25.55;70.36
33697;BME280;20031;43.416;23.232;2022-07-04T05:08:51;100095.41;;;25.57;70.38
33697;BME280;20031;43.416;23.232;2022-07-04T05:11:17;100085.84;;;25.61;70.71
33697;BME280;20031;43.416;23.232;2022-07-04T05:13:43;100092.88;;;25.72;71.27
33697;BME280;20031;43.416;23.232;2022-07-04T05:16:08;100099.66;;;25.79;70.68
33697;BME280;20031;43.416;23.232;2022-07-04T05:18:34;100088.72;;;25.81;70.26
33697;BME280;20031;43.416;23.232;2022-07-04T05:20:59;100085.81;;;25.87;70.31
33697;BME280;20031;43.416;23.232;2022-07-04T05:23:24;100090.94;;;25.94;70.10
33697;BME280;20031;43.416;23.232;2022-07-04T05:25:50;100096.09;;;26.05;70.55
33697;BME280;20031;43.416;23.232;2022-07-04T05:28:16;100097.72;;;26.11;69.80
33697;BME280;20031;43.416;23.232;2022-07-04T05:30:41;100088.84;;;26.01;69.05
33697;BME280;20031;43.416;23.232;2022-07-04T05:33:07;100090.25;;;26.08;70.51
33697;BME280;20031;43.416;23.232;2022-07-04T05:35:33;100095.06;;;26.11;70.00
33697;BME280;20031;43.416;23.232;2022-07-04T05:37:58;100083.31;;;26.12;69.83
33697;BME280;20031;43.416;23.232;2022-07-04T05:40:24;100085.47;;;26.15;70.08
33697;BME280;20031;43.416;23.232;2022-07-04T05:42:49;100098.00;;;26.15;70.10
33697;BME280;20031;43.416;23.232;2022-07-04T05:45:16;100095.38;;;26.20;69.84
33697;BME280;20031;43.416;23.232;2022-07-04T05:47:42;100095.66;;;26.23;69.80
33697;BME280;20031;43.416;23.232;2022-07-04T05:50:09;100095.38;;;26.20;68.97
33697;BME280;20031;43.416;23.232;2022-07-04T05:52:34;100099.34;;;26.12;68.62
33697;BME280;20031;43.416;23.232;2022-07-04T05:55:00;100099.09;;;26.14;69.27
33697;BME280;20031;43.416;23.232;2022-07-04T05:57:25;100102.63;;;26.24;69.55
33697;BME280;20031;43.416;23.232;2022-07-04T05:59:51;100103.28;;;26.41;69.38
33697;BME280;20031;43.416;23.232;2022-07-04T06:02:16;100103.97;;;26.26;68.23
33697;BME280;20031;43.416;23.232;2022-07-04T06:04:42;100100.72;;;26.20;68.48
33697;BME280;20031;43.416;23.232;2022-07-04T06:07:09;100104.75;;;26.22;68.93
33697;BME280;20031;43.416;23.232;2022-07-04T06:09:35;100102.94;;;26.27;69.02
33697;BME280;20031;43.416;23.232;2022-07-04T06:12:01;100099.94;;;26.60;69.46
33697;BME280;20031;43.416;23.232;2022-07-04T06:14:27;100106.69;;;26.82;68.17
33697;BME280;20031;43.416;23.232;2022-07-04T06:16:52;100101.16;;;27.04;67.64
33697;BME280;20031;43.416;23.232;2022-07-04T06:19:18;100101.50;;;27.27;66.70
33697;BME280;20031;43.416;23.232;2022-07-04T06:21:43;100099.66;;;27.47;66.40
33697;BME280;20031;43.416;23.232;2022-07-04T06:24:09;100092.75;;;27.61;65.99
33697;BME280;20031;43.416;23.232;2022-07-04T06:26:34;100086.88;;;27.69;64.50
33697;BME280;20031;43.416;23.232;2022-07-04T06:29:00;100087.09;;;27.68;65.12
33697;BME280;20031;43.416;23.232;2022-07-04T06:31:25;100092.47;;;27.73;63.98
33697;BME280;20031;43.416;23.232;2022-07-04T06:33:50;100084.16;;;27.84;64.63
33697;BME280;20031;43.416;23.232;2022-07-04T06:36:34;100084.72;;;28.11;63.28
33697;BME280;20031;43.416;23.232;2022-07-04T06:39:00;100081.44;;;28.29;62.62
33697;BME280;20031;43.416;23.232;2022-07-04T06:41:25;100084.38;;;28.32;62.40
33697;BME280;20031;43.416;23.232;2022-07-04T06:43:51;100075.25;;;28.43;62.60
33697;BME280;20031;43.416;23.232;2022-07-04T06:46:16;100078.69;;;28.53;61.82
33697;BME280;20031;43.416;23.232;2022-07-04T06:48:42;100076.50;;;28.70;62.16
33697;BME280;20031;43.416;23.232;2022-07-04T06:51:08;100073.78;;;28.75;61.80
33697;BME280;20031;43.416;23.232;2022-07-04T06:53:34;100076.47;;;28.65;61.65
33697;BME280;20031;43.416;23.232;2022-07-04T06:55:59;100082.94;;;28.64;62.00
33697;BME280;20031;43.416;23.232;2022-07-04T06:58:25;100078.09;;;28.66;60.93
33697;BME280;20031;43.416;23.232;2022-07-04T07:00:50;100074.06;;;28.74;61.28
33697;BME280;20031;43.416;23.232;2022-07-04T07:03:15;100071.13;;;28.75;61.64
33697;BME280;20031;43.416;23.232;2022-07-04T07:05:41;100075.41;;;28.66;61.08
33697;BME280;20031;43.416;23.232;2022-07-04T07:08:08;100067.13;;;28.63;61.59
33697;BME280;20031;43.416;23.232;2022-07-04T07:10:33;100070.34;;;28.65;61.23
33697;BME280;20031;43.416;23.232;2022-07-04T07:13:01;100071.28;;;28.93;60.79
33697;BME280;20031;43.416;23.232;2022-07-04T07:15:26;100068.47;;;29.18;58.81
33697;BME280;20031;43.416;23.232;2022-07-04T07:17:52;100062.09;;;29.47;58.88
33697;BME280;20031;43.416;23.232;2022-07-04T07:20:17;100051.91;;;29.78;58.07
33697;BME280;20031;43.416;23.232;2022-07-04T07:22:43;100057.22;;;29.88;56.49
33697;BME280;20031;43.416;23.232;2022-07-04T07:25:09;100056.59;;;29.95;55.48
33697;BME280;20031;43.416;23.232;2022-07-04T07:27:35;100057.22;;;30.16;55.78
33697;BME280;20031;43.416;23.232;2022-07-04T07:30:01;100057.53;;;30.38;56.09
33697;BME280;20031;43.416;23.232;2022-07-04T07:32:26;100059.19;;;30.57;55.41
33697;BME280;20031;43.416;23.232;2022-07-04T07:34:52;100056.16;;;30.82;55.36
33697;BME280;20031;43.416;23.232;2022-07-04T07:37:17;100055.75;;;31.11;55.75
33697;BME280;20031;43.416;23.232;2022-07-04T07:39:43;100054.31;;;31.19;53.45
33697;BME280;20031;43.416;23.232;2022-07-04T07:42:09;100056.69;;;31.02;53.91
33697;BME280;20031;43.416;23.232;2022-07-04T07:44:34;100049.16;;;31.04;53.49
33697;BME280;20031;43.416;23.232;2022-07-04T07:47:00;100057.13;;;31.09;53.96
33697;BME280;20031;43.416;23.232;2022-07-04T07:49:25;100055.19;;;31.14;53.86
33697;BME280;20031;43.416;23.232;2022-07-04T07:51:51;100049.00;;;31.32;53.60
33697;BME280;20031;43.416;23.232;2022-07-04T07:54:16;100051.81;;;31.59;53.29
33697;BME280;20031;43.416;23.232;2022-07-04T07:56:42;100046.50;;;31.86;52.80
33697;BME280;20031;43.416;23.232;2022-07-04T07:59:08;100046.75;;;32.02;52.29
33697;BME280;20031;43.416;23.232;2022-07-04T08:01:33;100031.59;;;32.20;52.18
33697;BME280;20031;43.416;23.232;2022-07-04T08:03:59;100038.16;;;32.14;51.09
33697;BME280;20031;43.416;23.232;2022-07-04T08:06:42;100032.69;;;32.05;52.56
33697;BME280;20031;43.416;23.232;2022-07-04T08:09:09;100036.09;;;31.93;51.68
33697;BME280;20031;43.416;23.232;2022-07-04T08:11:34;100029.19;;;32.18;51.94
33697;BME280;20031;43.416;23.232;2022-07-04T08:14:00;100023.78;;;32.32;51.33
33697;BME280;20031;43.416;23.232;2022-07-04T08:16:25;100018.63;;;32.49;51.58
33697;BME280;20031;43.416;23.232;2022-07-04T08:18:51;100034.16;;;32.78;51.15
33697;BME280;20031;43.416;23.232;2022-07-04T08:21:16;100026.84;;;32.92;51.13
33697;BME280;20031;43.416;23.232;2022-07-04T08:23:42;100030.13;;;33.03;49.63
33697;BME280;20031;43.416;23.232;2022-07-04T08:26:07;100023.47;;;33.22;49.82
33697;BME280;20031;43.416;23.232;2022-07-04T08:28:33;100025.88;;;33.23;49.45
33697;BME280;20031;43.416;23.232;2022-07-04T08:30:59;100026.47;;;33.42;49.11
33697;BME280;20031;43.416;23.232;2022-07-04T08:33:25;100016.75;;;33.41;48.35
33697;BME280;20031;43.416;23.232;2022-07-04T08:35:50;100018.06;;;33.22;48.08
33697;BME280;20031;43.416;23.232;2022-07-04T08:38:17;100015.75;;;33.29;48.47
33697;BME280;20031;43.416;23.232;2022-07-04T08:40:43;100011.69;;;33.61;48.78
33697;BME280;20031;43.416;23.232;2022-07-04T08:43:13;100020.75;;;33.87;48.01
33697;BME280;20031;43.416;23.232;2022-07-04T08:45:39;100020.59;;;33.92;47.23
33697;BME280;20031;43.416;23.232;2022-07-04T08:48:07;100020.56;;;34.14;48.53
33697;BME280;20031;43.416;23.232;2022-07-04T08:50:37;100017.97;;;34.39;48.68
33697;BME280;20031;43.416;23.232;2022-07-04T08:53:10;100030.44;;;34.57;48.39
33697;BME280;20031;43.416;23.232;2022-07-04T08:55:37;100015.63;;;34.63;46.26
33697;BME280;20031;43.416;23.232;2022-07-04T08:58:23;100025.97;;;34.53;44.77
33697;BME280;20031;43.416;23.232;2022-07-04T09:01:03;100020.88;;;34.60;46.59
33697;BME280;20031;43.416;23.232;2022-07-04T09:03:30;100020.59;;;34.78;46.94
33697;BME280;20031;43.416;23.232;2022-07-04T09:05:57;100022.09;;;34.92;46.60
33697;BME280;20031;43.416;23.232;2022-07-04T09:08:23;100022.56;;;35.11;45.90
33697;BME280;20031;43.416;23.232;2022-07-04T09:10:50;100021.13;;;35.22;43.92
33697;BME280;20031;43.416;23.232;2022-07-04T09:13:16;100020.47;;;35.08;43.12
33697;BME280;20031;43.416;23.232;2022-07-04T09:15:47;100022.56;;;35.19;40.84
33697;BME280;20031;43.416;23.232;2022-07-04T09:18:32;100020.00;;;35.48;41.07
33697;BME280;20031;43.416;23.232;2022-07-04T09:21:03;100019.63;;;35.75;40.08
33697;BME280;20031;43.416;23.232;2022-07-04T09:23:31;100008.94;;;35.87;40.44
33697;BME280;20031;43.416;23.232;2022-07-04T09:26:17;100008.91;;;35.95;39.27
33697;BME280;20031;43.416;23.232;2022-07-04T09:28:54;100010.69;;;36.20;39.47
33697;BME280;20031;43.416;23.232;2022-07-04T09:31:20;99999.00;;;36.36;39.00
33697;BME280;20031;43.416;23.232;2022-07-04T09:33:56;100003.03;;;36.22;38.06
33697;BME280;20031;43.416;23.232;2022-07-04T09:36:27;99999.97;;;36.32;38.91
33697;BME280;20031;43.416;23.232;2022-07-04T09:39:12;99996.75;;;36.59;39.59
33697;BME280;20031;43.416;23.232;2022-07-04T09:41:58;99989.50;;;36.91;38.82
33697;BME280;20031;43.416;23.232;2022-07-04T09:44:47;99987.69;;;36.83;38.38
33697;BME280;20031;43.416;23.232;2022-07-04T09:47:33;99986.38;;;37.01;38.45
33697;BME280;20031;43.416;23.232;2022-07-04T09:50:03;99986.47;;;37.13;38.79
33697;BME280;20031;43.416;23.232;2022-07-04T09:52:30;99989.25;;;37.25;37.99
33697;BME280;20031;43.416;23.232;2022-07-04T09:55:00;99996.03;;;37.19;37.70
33697;BME280;20031;43.416;23.232;2022-07-04T09:57:29;99991.13;;;37.45;37.76
33697;BME280;20031;43.416;23.232;2022-07-04T09:59:56;99980.91;;;37.30;36.58
33697;BME280;20031;43.416;23.232;2022-07-04T10:02:23;99989.91;;;36.81;38.09
33697;BME280;20031;43.416;23.232;2022-07-04T10:04:50;100000.50;;;36.17;38.82
33697;BME280;20031;43.416;23.232;2022-07-04T10:07:33;99996.03;;;35.84;39.97
33697;BME280;20031;43.416;23.232;2022-07-04T10:10:10;100005.28;;;35.66;40.56
33697;BME280;20031;43.416;23.232;2022-07-04T10:12:48;99999.47;;;35.39;41.03
33697;BME280;20031;43.416;23.232;2022-07-04T10:15:14;99998.94;;;35.28;41.33
33697;BME280;20031;43.416;23.232;2022-07-04T10:17:40;99996.41;;;35.23;41.70
33697;BME280;20031;43.416;23.232;2022-07-04T10:20:06;99997.38;;;35.02;42.23
33697;BME280;20031;43.416;23.232;2022-07-04T10:22:32;99994.22;;;34.92;43.69
33697;BME280;20031;43.416;23.232;2022-07-04T10:24:57;99984.44;;;34.82;43.13
33697;BME280;20031;43.416;23.232;2022-07-04T10:27:23;99982.38;;;34.79;43.28
33697;BME280;20031;43.416;23.232;2022-07-04T10:29:49;99978.06;;;34.78;42.87
33697;BME280;20031;43.416;23.232;2022-07-04T10:32:15;99979.69;;;34.96;42.89
33697;BME280;20031;43.416;23.232;2022-07-04T10:34:41;99978.75;;;35.01;42.43
33697;BME280;20031;43.416;23.232;2022-07-04T10:37:07;99975.06;;;35.05;42.91
33697;BME280;20031;43.416;23.232;2022-07-04T10:39:33;99973.31;;;35.09;41.59
33697;BME280;20031;43.416;23.232;2022-07-04T10:41:59;99968.03;;;35.21;41.90
33697;BME280;20031;43.416;23.232;2022-07-04T10:44:26;99973.75;;;35.45;40.67
33697;BME280;20031;43.416;23.232;2022-07-04T10:46:52;99960.44;;;35.77;39.34
33697;BME280;20031;43.416;23.232;2022-07-04T10:49:24;99968.59;;;36.14;39.27
33697;BME280;20031;43.416;23.232;2022-07-04T10:51:53;99966.69;;;36.64;36.88
33697;BME280;20031;43.416;23.232;2022-07-04T10:54:29;99968.97;;;37.02;37.31
33697;BME280;20031;43.416;23.232;2022-07-04T10:57:17;99963.56;;;37.34;35.71
33697;BME280;20031;43.416;23.232;2022-07-04T11:02:24;99948.47;;;37.69;34.92
33697;BME280;20031;43.416;23.232;2022-07-04T11:05:27;99943.09;;;37.61;33.73
33697;BME280;20031;43.416;23.232;2022-07-04T11:18:00;99936.53;;;37.50;32.70
33697;BME280;20031;43.416;23.232;2022-07-04T11:20:28;99933.50;;;37.19;33.22
33697;BME280;20031;43.416;23.232;2022-07-04T11:23:10;99925.84;;;37.33;33.32
33697;BME280;20031;43.416;23.232;2022-07-04T11:25:36;99917.94;;;37.40;33.58
33697;BME280;20031;43.416;23.232;2022-07-04T11:30:51;99913.75;;;37.54;33.03
33697;BME280;20031;43.416;23.232;2022-07-04T11:33:19;99901.78;;;37.67;32.86
33697;BME280;20031;43.416;23.232;2022-07-04T11:36:01;99895.09;;;37.65;34.44
33697;BME280;20031;43.416;23.232;2022-07-04T11:38:52;99907.22;;;37.79;33.87
33697;BME280;20031;43.416;23.232;2022-07-04T11:41:19;99910.19;;;37.30;34.15
33697;BME280;20031;43.416;23.232;2022-07-04T11:44:08;99904.69;;;37.50;33.65
33697;BME280;20031;43.416;23.232;2022-07-04T11:47:08;99898.69;;;37.57;33.81
33697;BME280;20031;43.416;23.232;2022-07-04T11:49:35;99893.44;;;37.40;33.85
33697;BME280;20031;43.416;23.232;2022-07-04T11:52:01;99901.31;;;37.21;34.16
33697;BME280;20031;43.416;23.232;2022-07-04T11:54:26;99898.56;;;37.09;33.83
33697;BME280;20031;43.416;23.232;2022-07-04T11:56:52;99894.72;;;37.10;34.47
33697;BME280;20031;43.416;23.232;2022-07-04T11:59:30;99882.97;;;36.86;34.10
33697;BME280;20031;43.416;23.232;2022-07-04T12:02:09;99888.78;;;36.96;34.55
33697;BME280;20031;43.416;23.232;2022-07-04T12:04:36;99892.09;;;36.81;34.59
33697;BME280;20031;43.416;23.232;2022-07-04T12:07:09;99886.44;;;36.75;33.90
33697;BME280;20031;43.416;23.232;2022-07-04T12:09:35;99880.41;;;37.01;34.41
33697;BME280;20031;43.416;23.232;2022-07-04T12:12:00;99878.59;;;37.26;34.42
33697;BME280;20031;43.416;23.232;2022-07-04T12:14:26;99871.63;;;37.16;33.46
33697;BME280;20031;43.416;23.232;2022-07-04T12:17:11;99875.72;;;36.90;33.45
33697;BME280;20031;43.416;23.232;2022-07-04T12:19:37;99874.31;;;37.04;34.91
33697;BME280;20031;43.416;23.232;2022-07-04T12:22:03;99871.72;;;37.08;33.36
33697;BME280;20031;43.416;23.232;2022-07-04T12:24:40;99872.44;;;36.84;34.53
33697;BME280;20031;43.416;23.232;2022-07-04T12:27:06;99872.22;;;36.89;34.59
33697;BME280;20031;43.416;23.232;2022-07-04T12:29:31;99868.69;;;36.69;35.25
33697;BME280;20031;43.416;23.232;2022-07-04T12:31:57;99873.34;;;36.88;35.45
33697;BME280;20031;43.416;23.232;2022-07-04T12:34:22;99861.94;;;37.27;34.79
33697;BME280;20031;43.416;23.232;2022-07-04T12:36:53;99867.72;;;37.37;34.15
33697;BME280;20031;43.416;23.232;2022-07-04T12:44:33;99856.31;;;37.91;32.37
33697;BME280;20031;43.416;23.232;2022-07-04T12:46:59;99844.28;;;37.92;31.87
33697;BME280;20031;43.416;23.232;2022-07-04T12:49:25;99863.53;;;38.23;31.65
33697;BME280;20031;43.416;23.232;2022-07-04T12:51:50;99855.03;;;38.25;32.37
33697;BME280;20031;43.416;23.232;2022-07-04T12:54:17;99846.56;;;38.41;32.54
33697;BME280;20031;43.416;23.232;2022-07-04T12:56:44;99838.34;;;38.92;32.35
33697;BME280;20031;43.416;23.232;2022-07-04T12:59:15;99841.19;;;39.11;31.48
33697;BME280;20031;43.416;23.232;2022-07-04T13:01:44;99831.34;;;38.52;32.65
33697;BME280;20031;43.416;23.232;2022-07-04T13:04:11;99831.53;;;38.86;32.56
33697;BME280;20031;43.416;23.232;2022-07-04T13:06:37;99833.25;;;39.06;32.38